Airfield :
LOGIN :

Register | Disclaimer

   EN    FR    IT 

 










Legend :    VFR   Marginal VFR   IFR   Intensive IFR   Very Intensive IFR
Visi :
Ceiling :
>= 8 km
>= 3000ft
5 to 8 km
1000 to 3000 ft
1500m to 5 km
500 to 1000 ft
800 to 1500m
200 to 500 ft
< 800m
< 200 ft
Symbols :   Thunderstorms  Fog  Heavy snow  Heavy precipitations  Wind > 20 kt
SIGMETs :     Misc.  Thunderstorms  Icing  Turbulence  Mountain Waves  Volcanic Ashes






- Airport Elevation : 628 ft
- IATA code : CMR


LFGA - Colmar-Houssen

CURRENT METAR :
  • 071830Z AUTO VRB02KT 9999 R19/1400U BKN049 BKN230 16/13 Q1020

EXPIRED METARs :
  • 071800Z AUTO 29004KT 260V350 9999 BKN054 BKN220 17/13 Q1020
  • 071730Z AUTO VRB02KT 9999 BKN054 18/13 Q1020
  • 071700Z AUTO 36004KT 9999 SCT056 18/13 Q1020
  • 071630Z AUTO 35004KT 9999 BKN058 BKN068 20/13 Q1020
  • 071600Z AUTO 35005KT CAVOK 20/13 Q1020

TAF N/A



MET'MAP, your aeronautical weather chart ! - Copyright ORBIFLY December 2007 - Disclaimer

ORBIFLY MET'MAP TEAM :

Programming & Development : Alexandra Zaïnal
Original concept : Baudouin d'Aumeries
Technical & hardware support : Manuel Goepfert
Assistance : Marc-Olivier Méhu




SOURCES & CREDITS :

   NOAA